createdAt,value
2018-07-04T00:01:19.560Z,101661.00
2018-07-04T00:04:06.847Z,101661.00
2018-07-04T00:06:55.700Z,101660.00
2018-07-04T00:09:45.113Z,101652.00
2018-07-04T00:12:32.692Z,101652.00
2018-07-04T00:15:19.884Z,101649.00
2018-07-04T00:18:07.365Z,101651.00
2018-07-04T00:20:55.514Z,101656.00
2018-07-04T00:23:44.759Z,101659.00
2018-07-04T00:26:34.047Z,101653.00
2018-07-04T00:29:21.772Z,101651.00
2018-07-04T00:32:09.602Z,101647.00
2018-07-04T00:34:59.071Z,101652.00
2018-07-04T00:37:47.329Z,101649.00
2018-07-04T00:40:36.044Z,101651.00
2018-07-04T00:43:25.942Z,101652.00
2018-07-04T00:46:13.974Z,101657.00
2018-07-04T00:49:01.182Z,101654.00
2018-07-04T00:51:48.288Z,101653.00
2018-07-04T00:54:36.295Z,101655.00
2018-07-04T00:57:23.675Z,101654.00
2018-07-04T01:00:11.325Z,101651.00
2018-07-04T01:03:02.973Z,101652.00
2018-07-04T01:05:52.105Z,101650.00
2018-07-04T01:08:39.978Z,101654.00
2018-07-04T01:11:27.770Z,101649.00
2018-07-04T01:14:15.209Z,101650.00
2018-07-04T01:17:04.257Z,101653.00
2018-07-04T01:19:53.457Z,101654.00
2018-07-04T01:22:41.827Z,101650.00
2018-07-04T01:25:29.085Z,101662.00
2018-07-04T01:28:18.769Z,101656.00
2018-07-04T01:31:08.296Z,101654.00
2018-07-04T01:33:57.833Z,101648.00
2018-07-04T01:36:46.568Z,101642.00
2018-07-04T01:39:33.962Z,101647.00
2018-07-04T01:42:21.377Z,101642.00
2018-07-04T01:45:09.253Z,101649.00
2018-07-04T01:47:58.231Z,101646.00
2018-07-04T01:50:47.426Z,101645.00
2018-07-04T01:53:35.306Z,101644.00
2018-07-04T01:56:24.590Z,101643.00
2018-07-04T01:59:18.181Z,101643.00
2018-07-04T02:02:06.784Z,101647.00
2018-07-04T02:04:59.846Z,101642.00
2018-07-04T02:07:48.687Z,101646.00
2018-07-04T02:10:36.262Z,101647.00
2018-07-04T02:13:24.322Z,101653.00
2018-07-04T02:16:12.591Z,101654.00
2018-07-04T02:19:01.261Z,101656.00
2018-07-04T02:21:48.568Z,101654.00
2018-07-04T02:24:37.033Z,101660.00
2018-07-04T02:27:26.388Z,101656.00
2018-07-04T02:30:14.349Z,101659.00
2018-07-04T02:32:55.476Z,101660.00
2018-07-04T02:35:45.120Z,101649.00
2018-07-04T02:38:32.979Z,101649.00
2018-07-04T02:41:22.284Z,101651.00
2018-07-04T02:44:09.525Z,101648.00
2018-07-04T02:47:01.295Z,101637.00
2018-07-04T02:49:48.889Z,101638.00
2018-07-04T02:52:37.549Z,101636.00
2018-07-04T02:55:25.449Z,101641.00
2018-07-04T02:58:17.815Z,101642.00
2018-07-04T03:01:05.762Z,101635.00
2018-07-04T03:03:53.247Z,101635.00
2018-07-04T03:06:42.120Z,101634.00
2018-07-04T03:09:30.073Z,101633.00
2018-07-04T03:12:18.251Z,101636.00
2018-07-04T03:15:07.879Z,101631.00
2018-07-04T03:17:56.374Z,101633.00
2018-07-04T03:20:44.110Z,101636.00
2018-07-04T03:23:33.841Z,101631.00
2018-07-04T03:26:22.948Z,101639.00
2018-07-04T03:29:08.368Z,101635.00
2018-07-04T03:31:57.962Z,101633.00
2018-07-04T03:34:49.948Z,101637.00
2018-07-04T03:37:37.804Z,101633.00
2018-07-04T03:40:25.389Z,101630.00
2018-07-04T03:43:14.053Z,101632.00
2018-07-04T03:46:03.531Z,101632.00
2018-07-04T03:48:53.479Z,101630.00
2018-07-04T03:51:36.585Z,101632.00
2018-07-04T03:54:26.925Z,101636.00
2018-07-04T03:57:14.263Z,101638.00
2018-07-04T04:00:02.078Z,101635.00
2018-07-04T04:02:49.690Z,101638.00
2018-07-04T04:05:38.807Z,101639.00
2018-07-04T04:08:26.317Z,101633.00
2018-07-04T04:11:14.641Z,101637.00
2018-07-04T04:14:01.820Z,101635.00
2018-07-04T04:16:52.027Z,101634.00
2018-07-04T04:19:47.179Z,101635.00
2018-07-04T04:22:35.321Z,101631.00
2018-07-04T04:25:23.078Z,101626.00
2018-07-04T04:28:10.781Z,101631.00
2018-07-04T04:30:59.280Z,101628.00
2018-07-04T04:33:47.415Z,101630.00
2018-07-04T04:36:36.599Z,101629.00
2018-07-04T04:39:25.406Z,101627.00
2018-07-04T04:42:13.439Z,101635.00
2018-07-04T04:45:00.854Z,101624.00
2018-07-04T04:47:48.128Z,101629.00
2018-07-04T04:50:36.139Z,101628.00
2018-07-04T04:53:24.295Z,101625.00
2018-07-04T04:56:13.644Z,101632.00
2018-07-04T04:59:01.165Z,101635.00
2018-07-04T05:01:49.525Z,101633.00
2018-07-04T05:04:36.856Z,101628.00
2018-07-04T05:07:24.193Z,101633.00
2018-07-04T05:10:12.789Z,101627.00
2018-07-04T05:13:00.739Z,101623.00
2018-07-04T05:15:49.727Z,101619.00
2018-07-04T05:18:37.565Z,101627.00
2018-07-04T05:21:28.087Z,101625.00
2018-07-04T05:24:16.633Z,101626.00
2018-07-04T05:27:06.630Z,101619.00
2018-07-04T05:29:54.728Z,101623.00
2018-07-04T05:32:42.803Z,101624.00
2018-07-04T05:35:30.185Z,101626.00
2018-07-04T05:38:19.107Z,101629.00
2018-07-04T05:41:00.329Z,101625.00
2018-07-04T05:43:50.115Z,101627.00
2018-07-04T05:46:39.735Z,101632.00
2018-07-04T05:49:26.885Z,101635.00
2018-07-04T05:52:19.227Z,101634.00
2018-07-04T05:55:06.606Z,101634.00
2018-07-04T05:57:55.538Z,101631.00
2018-07-04T06:00:43.178Z,101629.00
2018-07-04T06:03:30.394Z,101620.00
2018-07-04T06:06:20.231Z,101618.00
2018-07-04T06:09:07.659Z,101620.00
2018-07-04T06:11:58.567Z,101621.00
2018-07-04T06:14:45.941Z,101624.00
2018-07-04T06:17:34.165Z,101621.00
2018-07-04T06:20:24.571Z,101616.00
2018-07-04T06:23:14.105Z,101623.00
2018-07-04T06:26:01.383Z,101621.00
2018-07-04T06:28:48.585Z,101618.00
2018-07-04T06:31:35.929Z,101621.00
2018-07-04T06:34:23.136Z,101619.00
2018-07-04T06:37:10.437Z,101617.00
2018-07-04T06:39:39.542Z,101609.00
2018-07-04T06:42:08.312Z,101608.00
2018-07-04T06:44:36.895Z,101607.00
2018-07-04T06:47:06.536Z,101604.00
2018-07-04T06:49:35.484Z,101610.00
2018-07-04T06:52:04.364Z,101610.00
2018-07-04T06:54:33.024Z,101613.00
2018-07-04T06:57:02.541Z,101619.00
2018-07-04T06:59:33.559Z,101617.00
2018-07-04T07:02:10.963Z,101605.00
2018-07-04T07:04:59.326Z,101605.00
2018-07-04T07:07:50.826Z,101609.00
2018-07-04T07:10:37.960Z,101604.00
2018-07-04T07:13:25.605Z,101604.00
2018-07-04T07:16:12.954Z,101599.00
2018-07-04T07:19:00.101Z,101595.00
2018-07-04T07:21:47.437Z,101602.00
2018-07-04T07:24:34.806Z,101597.00
2018-07-04T07:27:22.028Z,101599.00
2018-07-04T07:30:09.205Z,101596.00
2018-07-04T07:32:56.760Z,101591.00
2018-07-04T07:35:44.050Z,101588.00
2018-07-04T07:38:31.325Z,101583.00
2018-07-04T07:41:18.585Z,101582.00
2018-07-04T07:44:05.717Z,101576.00
2018-07-04T07:46:52.917Z,101575.00
2018-07-04T07:49:40.140Z,101575.00
2018-07-04T07:52:27.253Z,101571.00
2018-07-04T07:55:14.838Z,101569.00
2018-07-04T07:58:02.025Z,101570.00
2018-07-04T08:00:49.081Z,101569.00
2018-07-04T08:03:36.184Z,101567.00
2018-07-04T08:06:23.389Z,101571.00
2018-07-04T08:09:10.577Z,101567.00
2018-07-04T08:12:01.146Z,101556.00
2018-07-04T08:14:48.342Z,101549.00
2018-07-04T08:17:35.465Z,101556.00
2018-07-04T08:20:24.184Z,101552.00
2018-07-04T08:23:17.850Z,101550.00
2018-07-04T08:26:05.450Z,101547.00
2018-07-04T08:28:53.588Z,101552.00
2018-07-04T08:31:42.837Z,101548.00
2018-07-04T08:34:30.734Z,101547.00
2018-07-04T08:37:17.927Z,101540.00
2018-07-04T08:40:05.885Z,101543.00
2018-07-04T08:42:53.513Z,101537.00
2018-07-04T08:45:40.747Z,101532.00
2018-07-04T08:48:28.866Z,101535.00
2018-07-04T08:51:16.207Z,101535.00
2018-07-04T08:54:03.517Z,101535.00
2018-07-04T08:56:50.793Z,101532.00
2018-07-04T08:59:38.083Z,101532.00
2018-07-04T09:02:25.201Z,101533.00
2018-07-04T09:05:12.307Z,101530.00
2018-07-04T09:07:59.333Z,101527.00
2018-07-04T09:10:46.674Z,101525.00
2018-07-04T09:13:36.111Z,101527.00
2018-07-04T09:16:23.312Z,101527.00
2018-07-04T09:19:10.339Z,101527.00
2018-07-04T09:21:57.712Z,101524.00
2018-07-04T09:24:44.930Z,101521.00
2018-07-04T09:27:32.309Z,101523.00
2018-07-04T09:30:21.084Z,101519.00
2018-07-04T09:33:08.500Z,101518.00
2018-07-04T09:35:55.878Z,101515.00
2018-07-04T09:38:43.557Z,101522.00
2018-07-04T09:41:33.887Z,101513.00
2018-07-04T09:44:21.549Z,101511.00
2018-07-04T09:47:08.865Z,101502.00
2018-07-04T09:50:02.871Z,101504.00
2018-07-04T09:52:50.007Z,101513.00
2018-07-04T09:55:37.214Z,101510.00
2018-07-04T09:58:24.459Z,101504.00
2018-07-04T10:01:16.998Z,101499.00
2018-07-04T10:04:04.427Z,101499.00
2018-07-04T10:06:45.930Z,101496.00
2018-07-04T10:09:26.878Z,101494.00
2018-07-04T10:12:13.902Z,101490.00
2018-07-04T10:15:01.064Z,101490.00
2018-07-04T10:17:48.418Z,101497.00
2018-07-04T10:20:35.466Z,101484.00
2018-07-04T10:23:23.008Z,101486.00
2018-07-04T10:26:10.321Z,101486.00
2018-07-04T10:28:57.562Z,101481.00
2018-07-04T10:31:44.963Z,101483.00
2018-07-04T10:34:33.131Z,101480.00
2018-07-04T10:37:21.276Z,101474.00
2018-07-04T10:40:08.419Z,101470.00
2018-07-04T10:42:55.649Z,101472.00
2018-07-04T10:45:42.774Z,101476.00
2018-07-04T10:48:31.057Z,101470.00
2018-07-04T10:51:18.110Z,101464.00
2018-07-04T10:54:05.178Z,101460.00
2018-07-04T10:56:52.370Z,101463.00
2018-07-04T10:59:39.777Z,101460.00
2018-07-04T11:02:26.976Z,101459.00
2018-07-04T11:05:14.604Z,101464.00
2018-07-04T11:08:01.874Z,101453.00
2018-07-04T11:10:49.242Z,101448.00
2018-07-04T11:13:36.413Z,101448.00
2018-07-04T11:16:23.504Z,101448.00
2018-07-04T11:19:10.637Z,101444.00
2018-07-04T11:21:58.369Z,101446.00
2018-07-04T11:24:45.512Z,101441.00
2018-07-04T11:27:26.688Z,101436.00
2018-07-04T11:30:13.830Z,101437.00
2018-07-04T11:33:01.016Z,101426.00
2018-07-04T11:35:48.252Z,101429.00
2018-07-04T11:38:29.551Z,101435.00
2018-07-04T11:41:16.593Z,101439.00
2018-07-04T11:44:03.817Z,101435.00
2018-07-04T11:46:32.378Z,101431.00
2018-07-04T11:49:01.894Z,101427.00
2018-07-04T11:51:30.503Z,101425.00
2018-07-04T11:53:59.095Z,101426.00
2018-07-04T11:56:27.713Z,101432.00
2018-07-04T11:58:56.251Z,101433.00
2018-07-04T12:01:24.979Z,101434.00
2018-07-04T12:04:12.799Z,101431.00
2018-07-04T12:07:00.314Z,101439.00
2018-07-04T12:09:30.192Z,101427.00
2018-07-04T12:11:58.971Z,101432.00
2018-07-04T12:14:27.517Z,101427.00
2018-07-04T12:16:56.292Z,101421.00
2018-07-04T12:19:25.469Z,101423.00
2018-07-04T12:21:54.426Z,101428.00
2018-07-04T12:24:23.007Z,101425.00
2018-07-04T12:26:51.657Z,101419.00
2018-07-04T12:29:20.187Z,101416.00
2018-07-04T12:31:48.791Z,101417.00
2018-07-04T12:34:17.373Z,101412.00
2018-07-04T12:36:45.974Z,101418.00
2018-07-04T12:39:14.544Z,101417.00
2018-07-04T12:41:43.910Z,101405.00
2018-07-04T12:44:12.493Z,101402.00
2018-07-04T12:46:41.084Z,101402.00
2018-07-04T12:49:10.690Z,101404.00
2018-07-04T12:51:39.273Z,101403.00
2018-07-04T12:54:13.071Z,101395.00
2018-07-04T12:57:00.214Z,101395.00
2018-07-04T12:59:47.365Z,101390.00
2018-07-04T13:02:34.647Z,101390.00
2018-07-04T13:05:21.952Z,101387.00
2018-07-04T13:08:09.060Z,101392.00
2018-07-04T13:10:56.357Z,101385.00
2018-07-04T13:13:43.820Z,101376.00
2018-07-04T13:16:30.897Z,101378.00
2018-07-04T13:19:18.112Z,101373.00
2018-07-04T13:22:05.181Z,101366.00
2018-07-04T13:24:52.433Z,101368.00
2018-07-04T13:27:39.736Z,101362.00
2018-07-04T13:30:31.145Z,101356.00
2018-07-04T13:33:19.358Z,101351.00
2018-07-04T13:36:08.104Z,101344.00
2018-07-04T13:38:56.627Z,101346.00
2018-07-04T13:41:45.997Z,101347.00
2018-07-04T13:44:32.949Z,101340.00
2018-07-04T13:47:22.625Z,101337.00
2018-07-04T13:50:11.314Z,101335.00
2018-07-04T13:52:59.089Z,101339.00
2018-07-04T13:55:46.310Z,101341.00
2018-07-04T13:58:34.699Z,101336.00
2018-07-04T14:01:27.686Z,101331.00
2018-07-04T14:04:16.578Z,101328.00
2018-07-04T14:07:05.012Z,101334.00
2018-07-04T14:09:54.645Z,101342.00
2018-07-04T14:12:42.897Z,101341.00
2018-07-04T14:15:30.142Z,101349.00
2018-07-04T14:18:17.869Z,101343.00
2018-07-04T14:21:07.096Z,101340.00
2018-07-04T14:23:57.151Z,101337.00
2018-07-04T14:26:46.286Z,101339.00
2018-07-04T14:29:38.165Z,101345.00
2018-07-04T14:32:26.381Z,101340.00
2018-07-04T14:35:15.805Z,101346.00
2018-07-04T14:38:04.292Z,101347.00
2018-07-04T14:40:52.902Z,101350.00
2018-07-04T14:43:42.329Z,101353.00
2018-07-04T14:46:33.925Z,101341.00
2018-07-04T14:49:21.146Z,101342.00
2018-07-04T14:52:08.672Z,101349.00
2018-07-04T14:54:56.493Z,101342.00
2018-07-04T14:57:45.320Z,101345.00
2018-07-04T15:00:34.684Z,101350.00
2018-07-04T15:03:27.347Z,101345.00
2018-07-04T15:06:16.339Z,101353.00
2018-07-04T15:09:04.095Z,101350.00
2018-07-04T15:11:52.410Z,101343.00
2018-07-04T15:14:41.330Z,101341.00
2018-07-04T15:17:28.509Z,101340.00
2018-07-04T15:20:15.741Z,101336.00
2018-07-04T15:23:02.803Z,101333.00
2018-07-04T15:25:50.823Z,101337.00
2018-07-04T15:28:37.870Z,101336.00
2018-07-04T15:31:25.189Z,101342.00
2018-07-04T15:34:12.316Z,101343.00
2018-07-04T15:36:59.556Z,101343.00
2018-07-04T15:39:46.779Z,101346.00
2018-07-04T15:42:34.177Z,101344.00
2018-07-04T15:45:21.289Z,101342.00
2018-07-04T15:48:08.646Z,101341.00
2018-07-04T15:50:55.879Z,101341.00
2018-07-04T15:53:43.204Z,101340.00
2018-07-04T15:56:30.221Z,101331.00
2018-07-04T15:59:17.332Z,101336.00
2018-07-04T16:02:04.565Z,101332.00
2018-07-04T16:04:51.746Z,101332.00
2018-07-04T16:07:39.031Z,101318.00
2018-07-04T16:10:26.371Z,101326.00
2018-07-04T16:13:14.465Z,101320.00
2018-07-04T16:16:01.687Z,101321.00
2018-07-04T16:18:49.151Z,101322.00
2018-07-04T16:21:36.522Z,101328.00
2018-07-04T16:24:23.656Z,101316.00
2018-07-04T16:27:10.856Z,101319.00
2018-07-04T16:29:58.209Z,101317.00
2018-07-04T16:32:45.555Z,101312.00
2018-07-04T16:35:32.832Z,101312.00
2018-07-04T16:38:20.244Z,101308.00
2018-07-04T16:41:07.555Z,101302.00
2018-07-04T16:43:54.956Z,101302.00
2018-07-04T16:46:42.302Z,101304.00
2018-07-04T16:49:29.591Z,101298.00
2018-07-04T16:52:16.724Z,101301.00
2018-07-04T16:55:03.790Z,101293.00
2018-07-04T16:57:51.165Z,101299.00
2018-07-04T17:00:38.405Z,101299.00
2018-07-04T17:03:25.550Z,101302.00
2018-07-04T17:06:13.360Z,101305.00
2018-07-04T17:09:00.619Z,101302.00
2018-07-04T17:11:47.983Z,101300.00
2018-07-04T17:14:35.137Z,101305.00
2018-07-04T17:17:22.809Z,101310.00
2018-07-04T17:20:09.837Z,101309.00
2018-07-04T17:22:57.157Z,101305.00
2018-07-04T17:25:44.712Z,101310.00
2018-07-04T17:28:31.884Z,101315.00
2018-07-04T17:31:19.121Z,101306.00
2018-07-04T17:34:06.699Z,101312.00
2018-07-04T17:36:53.852Z,101308.00
2018-07-04T17:39:41.150Z,101307.00
2018-07-04T17:42:28.292Z,101307.00
2018-07-04T17:45:15.756Z,101309.00
2018-07-04T17:48:02.897Z,101313.00
2018-07-04T17:50:50.132Z,101314.00
2018-07-04T17:53:37.313Z,101321.00
2018-07-04T17:56:24.433Z,101327.00
2018-07-04T17:59:11.450Z,101328.00
2018-07-04T18:01:58.701Z,101325.00
2018-07-04T18:04:45.983Z,101331.00
2018-07-04T18:07:33.082Z,101332.00
2018-07-04T18:10:20.203Z,101333.00
2018-07-04T18:13:07.451Z,101335.00
2018-07-04T18:15:54.495Z,101336.00
2018-07-04T18:18:41.641Z,101334.00
2018-07-04T18:21:28.798Z,101325.00
2018-07-04T18:24:15.892Z,101331.00
2018-07-04T18:27:03.109Z,101332.00
2018-07-04T18:29:50.355Z,101334.00
2018-07-04T18:32:37.560Z,101330.00
2018-07-04T18:35:24.832Z,101341.00
2018-07-04T18:38:12.768Z,101342.00
2018-07-04T18:41:00.062Z,101345.00
2018-07-04T18:43:47.416Z,101348.00
2018-07-04T18:46:34.629Z,101346.00
2018-07-04T18:49:21.719Z,101354.00
2018-07-04T18:52:08.865Z,101351.00
2018-07-04T18:54:55.937Z,101356.00
2018-07-04T18:57:43.165Z,101353.00
2018-07-04T19:00:30.373Z,101357.00
2018-07-04T19:03:17.584Z,101360.00
2018-07-04T19:06:05.365Z,101344.00
2018-07-04T19:08:46.729Z,101342.00
2018-07-04T19:11:34.573Z,101348.00
2018-07-04T19:14:30.295Z,101345.00
2018-07-04T19:17:20.269Z,101345.00
2018-07-04T19:20:08.080Z,101345.00
2018-07-04T19:22:56.621Z,101347.00
2018-07-04T19:25:45.248Z,101342.00
2018-07-04T19:28:36.222Z,101340.00
2018-07-04T19:31:24.325Z,101340.00
2018-07-04T19:34:12.525Z,101343.00
2018-07-04T19:37:00.357Z,101332.00
2018-07-04T19:39:47.705Z,101331.00
2018-07-04T19:42:35.996Z,101334.00
2018-07-04T19:45:23.300Z,101335.00
2018-07-04T19:48:10.480Z,101334.00
2018-07-04T19:50:57.563Z,101331.00
2018-07-04T19:53:47.097Z,101329.00
2018-07-04T19:56:34.431Z,101330.00
2018-07-04T19:59:23.520Z,101329.00
2018-07-04T20:02:10.814Z,101332.00
2018-07-04T20:04:58.169Z,101334.00
2018-07-04T20:07:46.845Z,101336.00
2018-07-04T20:10:34.112Z,101333.00
2018-07-04T20:13:21.205Z,101338.00
2018-07-04T20:16:09.186Z,101337.00
2018-07-04T20:18:56.353Z,101337.00
2018-07-04T20:21:47.002Z,101335.00
2018-07-04T20:24:33.948Z,101335.00
2018-07-04T20:27:21.085Z,101337.00
2018-07-04T20:30:08.205Z,101339.00
2018-07-04T20:32:56.420Z,101339.00
2018-07-04T20:35:43.411Z,101341.00
2018-07-04T20:38:31.549Z,101340.00
2018-07-04T20:41:18.791Z,101337.00
2018-07-04T20:44:06.051Z,101341.00
2018-07-04T20:46:53.148Z,101345.00
2018-07-04T20:49:40.190Z,101345.00
2018-07-04T20:52:27.230Z,101343.00
2018-07-04T20:55:16.103Z,101343.00
2018-07-04T20:58:04.208Z,101348.00
2018-07-04T21:00:51.145Z,101354.00
2018-07-04T21:03:38.346Z,101354.00
2018-07-04T21:06:27.818Z,101352.00
2018-07-04T21:09:15.026Z,101353.00
2018-07-04T21:12:02.143Z,101352.00
2018-07-04T21:14:50.443Z,101346.00
2018-07-04T21:17:39.546Z,101347.00
2018-07-04T21:20:26.615Z,101355.00
2018-07-04T21:23:08.833Z,101359.00
2018-07-04T21:25:55.717Z,101357.00
2018-07-04T21:28:44.350Z,101362.00
2018-07-04T21:31:25.422Z,101367.00
2018-07-04T21:34:12.602Z,101363.00
2018-07-04T21:36:59.827Z,101364.00
2018-07-04T21:39:47.006Z,101359.00
2018-07-04T21:42:34.225Z,101356.00
2018-07-04T21:45:21.563Z,101351.00
2018-07-04T21:48:08.696Z,101350.00
2018-07-04T21:50:55.869Z,101347.00
2018-07-04T21:53:42.925Z,101352.00
2018-07-04T21:56:24.236Z,101358.00
2018-07-04T21:59:11.473Z,101359.00
2018-07-04T22:01:58.582Z,101362.00
2018-07-04T22:04:45.964Z,101363.00
2018-07-04T22:07:33.039Z,101357.00
2018-07-04T22:10:20.314Z,101356.00
2018-07-04T22:13:07.652Z,101359.00
2018-07-04T22:15:54.777Z,101359.00
2018-07-04T22:18:42.837Z,101361.00
2018-07-04T22:21:29.869Z,101349.00
2018-07-04T22:24:17.297Z,101345.00
2018-07-04T22:27:04.553Z,101344.00
2018-07-04T22:29:51.636Z,101342.00
2018-07-04T22:32:38.929Z,101346.00
2018-07-04T22:35:26.256Z,101348.00
2018-07-04T22:38:13.635Z,101350.00
2018-07-04T22:41:00.872Z,101347.00
2018-07-04T22:43:47.948Z,101343.00
2018-07-04T22:46:35.262Z,101344.00
2018-07-04T22:49:22.449Z,101339.00
2018-07-04T22:52:09.763Z,101345.00
2018-07-04T22:54:57.065Z,101336.00
2018-07-04T22:57:46.441Z,101326.00
2018-07-04T23:00:33.715Z,101333.00
2018-07-04T23:03:21.108Z,101330.00
2018-07-04T23:06:08.287Z,101336.00
2018-07-04T23:08:55.661Z,101338.00
2018-07-04T23:11:42.911Z,101332.00
2018-07-04T23:14:30.088Z,101330.00
2018-07-04T23:17:17.228Z,101335.00
2018-07-04T23:20:04.549Z,101340.00
2018-07-04T23:22:52.260Z,101342.00
2018-07-04T23:25:39.421Z,101345.00
2018-07-04T23:28:26.644Z,101346.00
2018-07-04T23:31:13.902Z,101348.00
2018-07-04T23:34:01.265Z,101348.00
2018-07-04T23:36:48.493Z,101349.00
2018-07-04T23:39:29.571Z,101346.00
2018-07-04T23:42:16.572Z,101338.00
2018-07-04T23:45:03.812Z,101338.00
2018-07-04T23:47:51.195Z,101342.00
2018-07-04T23:50:38.374Z,101349.00
2018-07-04T23:53:25.442Z,101350.00
2018-07-04T23:56:12.778Z,101346.00
2018-07-04T23:59:00.503Z,101341.00
